sensor_id;sensor_type;location;lat;lon;timestamp;pressure;altitude;pressure_sealevel;temperature;humidity
40788;BME280;26497;52.494;7.546;2022-07-29T00:01:55;101176.47;;;20.94;44.10
40788;BME280;26497;52.494;7.546;2022-07-29T00:04:22;101166.59;;;20.96;43.94
40788;BME280;26497;52.494;7.546;2022-07-29T00:06:49;101167.63;;;20.91;44.08
40788;BME280;26497;52.494;7.546;2022-07-29T00:09:16;101163.91;;;20.96;43.92
40788;BME280;26497;52.494;7.546;2022-07-29T00:11:43;101169.38;;;20.92;44.33
40788;BME280;26497;52.494;7.546;2022-07-29T00:14:10;101160.25;;;20.98;44.02
40788;BME280;26497;52.494;7.546;2022-07-29T00:16:37;101155.22;;;20.89;44.17
40788;BME280;26497;52.494;7.546;2022-07-29T00:19:05;101153.97;;;20.99;43.95
40788;BME280;26497;52.494;7.546;2022-07-29T00:21:32;101145.03;;;20.99;43.83
40788;BME280;26497;52.494;7.546;2022-07-29T00:23:59;101145.97;;;20.98;44.17
40788;BME280;26497;52.494;7.546;2022-07-29T00:26:27;101136.00;;;21.01;43.94
40788;BME280;26497;52.494;7.546;2022-07-29T00:28:58;101128.94;;;20.99;44.01
40788;BME280;26497;52.494;7.546;2022-07-29T00:31:24;101131.50;;;21.02;43.91
40788;BME280;26497;52.494;7.546;2022-07-29T00:33:51;101130.75;;;20.98;44.07
40788;BME280;26497;52.494;7.546;2022-07-29T00:36:20;101123.25;;;21.08;43.50
40788;BME280;26497;52.494;7.546;2022-07-29T00:38:46;101128.31;;;20.92;43.89
40788;BME280;26497;52.494;7.546;2022-07-29T00:41:14;101128.09;;;20.98;43.91
40788;BME280;26497;52.494;7.546;2022-07-29T00:43:41;101130.47;;;21.06;43.69
40788;BME280;26497;52.494;7.546;2022-07-29T00:46:08;101112.63;;;21.05;43.87
40788;BME280;26497;52.494;7.546;2022-07-29T00:48:35;101125.56;;;20.94;44.51
40788;BME280;26497;52.494;7.546;2022-07-29T00:51:04;101112.84;;;20.99;44.32
40788;BME280;26497;52.494;7.546;2022-07-29T00:53:32;101111.94;;;21.00;44.07
40788;BME280;26497;52.494;7.546;2022-07-29T00:56:00;101121.13;;;20.92;44.46
40788;BME280;26497;52.494;7.546;2022-07-29T00:58:27;101121.78;;;20.99;43.92
40788;BME280;26497;52.494;7.546;2022-07-29T01:00:54;101115.31;;;21.05;43.81
40788;BME280;26497;52.494;7.546;2022-07-29T01:03:22;101111.09;;;20.98;44.19
40788;BME280;26497;52.494;7.546;2022-07-29T01:05:49;101117.69;;;20.89;44.55
40788;BME280;26497;52.494;7.546;2022-07-29T01:08:16;101108.84;;;20.87;44.64
40788;BME280;26497;52.494;7.546;2022-07-29T01:10:46;101112.25;;;20.90;44.40
40788;BME280;26497;52.494;7.546;2022-07-29T01:13:14;101102.34;;;20.92;44.43
40788;BME280;26497;52.494;7.546;2022-07-29T01:15:46;101093.28;;;20.97;44.26
40788;BME280;26497;52.494;7.546;2022-07-29T01:18:20;101096.06;;;20.94;44.49
40788;BME280;26497;52.494;7.546;2022-07-29T01:24:35;101089.19;;;20.86;44.57
40788;BME280;26497;52.494;7.546;2022-07-29T01:27:23;101085.75;;;20.83;44.44
40788;BME280;26497;52.494;7.546;2022-07-29T01:29:58;101093.09;;;20.76;44.82
40788;BME280;26497;52.494;7.546;2022-07-29T01:32:26;101078.34;;;20.89;44.71
40788;BME280;26497;52.494;7.546;2022-07-29T01:35:00;101077.75;;;20.81;44.67
40788;BME280;26497;52.494;7.546;2022-07-29T01:37:43;101080.00;;;20.68;45.08
40788;BME280;26497;52.494;7.546;2022-07-29T01:40:24;101083.03;;;20.57;45.59
40788;BME280;26497;52.494;7.546;2022-07-29T01:42:57;101081.97;;;20.63;45.34
40788;BME280;26497;52.494;7.546;2022-07-29T01:45:33;101078.56;;;20.58;45.35
40788;BME280;26497;52.494;7.546;2022-07-29T01:48:12;101072.78;;;20.45;45.73
40788;BME280;26497;52.494;7.546;2022-07-29T01:50:48;101080.53;;;20.53;45.69
40788;BME280;26497;52.494;7.546;2022-07-29T01:53:23;101071.06;;;20.42;46.22
40788;BME280;26497;52.494;7.546;2022-07-29T01:55:53;101076.38;;;20.44;45.85
40788;BME280;26497;52.494;7.546;2022-07-29T01:58:21;101074.97;;;20.33;46.13
40788;BME280;26497;52.494;7.546;2022-07-29T02:00:52;101070.53;;;20.32;46.16
40788;BME280;26497;52.494;7.546;2022-07-29T02:03:21;101058.06;;;20.31;46.41
40788;BME280;26497;52.494;7.546;2022-07-29T02:05:50;101058.09;;;20.30;46.61
40788;BME280;26497;52.494;7.546;2022-07-29T02:08:19;101068.88;;;20.28;46.57
40788;BME280;26497;52.494;7.546;2022-07-29T02:10:47;101060.34;;;20.17;46.79
40788;BME280;26497;52.494;7.546;2022-07-29T02:13:17;101062.81;;;20.23;46.55
40788;BME280;26497;52.494;7.546;2022-07-29T02:15:44;101055.91;;;20.16;46.72
40788;BME280;26497;52.494;7.546;2022-07-29T02:18:17;101058.81;;;20.10;47.24
40788;BME280;26497;52.494;7.546;2022-07-29T02:20:48;101055.09;;;20.14;47.15
40788;BME280;26497;52.494;7.546;2022-07-29T02:23:21;101045.84;;;20.23;46.71
40788;BME280;26497;52.494;7.546;2022-07-29T02:25:50;101047.59;;;20.24;46.46
40788;BME280;26497;52.494;7.546;2022-07-29T02:28:19;101045.94;;;20.21;46.49
40788;BME280;26497;52.494;7.546;2022-07-29T02:30:48;101042.44;;;20.19;46.69
40788;BME280;26497;52.494;7.546;2022-07-29T02:33:20;101046.25;;;20.12;46.93
40788;BME280;26497;52.494;7.546;2022-07-29T02:35:48;101044.41;;;20.14;46.98
40788;BME280;26497;52.494;7.546;2022-07-29T02:38:17;101042.34;;;20.21;46.41
40788;BME280;26497;52.494;7.546;2022-07-29T02:41:05;101042.56;;;20.14;46.71
40788;BME280;26497;52.494;7.546;2022-07-29T02:43:35;101039.03;;;20.14;46.89
40788;BME280;26497;52.494;7.546;2022-07-29T02:46:04;101034.84;;;20.05;47.20
40788;BME280;26497;52.494;7.546;2022-07-29T02:48:38;101041.81;;;20.11;47.12
40788;BME280;26497;52.494;7.546;2022-07-29T02:51:12;101045.22;;;20.16;46.88
40788;BME280;26497;52.494;7.546;2022-07-29T02:53:44;101041.66;;;20.15;46.77
40788;BME280;26497;52.494;7.546;2022-07-29T02:56:16;101050.06;;;20.04;47.06
40788;BME280;26497;52.494;7.546;2022-07-29T02:58:52;101032.84;;;20.12;46.90
40788;BME280;26497;52.494;7.546;2022-07-29T03:01:23;101038.09;;;20.15;47.01
40788;BME280;26497;52.494;7.546;2022-07-29T03:03:53;101036.25;;;20.17;46.75
40788;BME280;26497;52.494;7.546;2022-07-29T03:06:23;101042.53;;;20.16;47.02
40788;BME280;26497;52.494;7.546;2022-07-29T03:08:51;101039.75;;;20.19;46.81
40788;BME280;26497;52.494;7.546;2022-07-29T03:11:19;101039.78;;;20.17;46.70
40788;BME280;26497;52.494;7.546;2022-07-29T03:13:46;101043.16;;;20.24;46.75
40788;BME280;26497;52.494;7.546;2022-07-29T03:16:14;101040.41;;;20.26;46.75
40788;BME280;26497;52.494;7.546;2022-07-29T03:18:42;101043.16;;;20.24;46.72
40788;BME280;26497;52.494;7.546;2022-07-29T03:21:10;101039.84;;;20.16;46.95
40788;BME280;26497;52.494;7.546;2022-07-29T03:23:43;101029.09;;;20.17;46.79
40788;BME280;26497;52.494;7.546;2022-07-29T03:26:11;101033.94;;;20.06;47.10
40788;BME280;26497;52.494;7.546;2022-07-29T03:28:38;101031.88;;;20.14;47.04
40788;BME280;26497;52.494;7.546;2022-07-29T03:31:05;101030.63;;;20.25;46.60
40788;BME280;26497;52.494;7.546;2022-07-29T03:33:32;101034.22;;;20.24;46.66
40788;BME280;26497;52.494;7.546;2022-07-29T03:35:58;101036.19;;;20.18;46.56
40788;BME280;26497;52.494;7.546;2022-07-29T03:38:30;101028.22;;;20.17;46.78
40788;BME280;26497;52.494;7.546;2022-07-29T03:41:05;101024.53;;;20.19;46.47
40788;BME280;26497;52.494;7.546;2022-07-29T03:43:37;101026.16;;;20.25;46.58
40788;BME280;26497;52.494;7.546;2022-07-29T03:46:06;101032.69;;;20.16;46.88
40788;BME280;26497;52.494;7.546;2022-07-29T03:48:36;101025.22;;;20.26;46.35
40788;BME280;26497;52.494;7.546;2022-07-29T03:51:06;101029.19;;;20.14;46.92
40788;BME280;26497;52.494;7.546;2022-07-29T03:53:34;101035.16;;;20.23;46.78
40788;BME280;26497;52.494;7.546;2022-07-29T03:56:03;101031.75;;;20.17;46.62
40788;BME280;26497;52.494;7.546;2022-07-29T03:58:33;101029.53;;;20.30;46.31
40788;BME280;26497;52.494;7.546;2022-07-29T04:01:00;101025.88;;;20.33;46.30
40788;BME280;26497;52.494;7.546;2022-07-29T04:03:28;101021.63;;;20.27;46.56
40788;BME280;26497;52.494;7.546;2022-07-29T04:06:00;101026.03;;;20.28;46.57
40788;BME280;26497;52.494;7.546;2022-07-29T04:08:28;101024.41;;;20.24;46.54
40788;BME280;26497;52.494;7.546;2022-07-29T04:10:56;101034.19;;;20.25;46.35
40788;BME280;26497;52.494;7.546;2022-07-29T04:13:23;101035.50;;;20.39;46.02
40788;BME280;26497;52.494;7.546;2022-07-29T04:15:50;101028.50;;;20.35;45.93
40788;BME280;26497;52.494;7.546;2022-07-29T04:18:17;101019.56;;;20.34;46.24
40788;BME280;26497;52.494;7.546;2022-07-29T04:20:44;101034.06;;;20.28;46.45
40788;BME280;26497;52.494;7.546;2022-07-29T04:23:11;101028.88;;;20.24;46.75
40788;BME280;26497;52.494;7.546;2022-07-29T04:25:39;101038.31;;;20.34;46.09
40788;BME280;26497;52.494;7.546;2022-07-29T04:28:09;101035.72;;;20.32;46.22
40788;BME280;26497;52.494;7.546;2022-07-29T04:30:37;101041.59;;;20.42;45.84
40788;BME280;26497;52.494;7.546;2022-07-29T04:33:06;101042.81;;;20.33;46.00
40788;BME280;26497;52.494;7.546;2022-07-29T04:35:36;101040.53;;;20.48;45.80
40788;BME280;26497;52.494;7.546;2022-07-29T04:38:03;101031.47;;;20.52;45.53
40788;BME280;26497;52.494;7.546;2022-07-29T04:40:31;101042.03;;;20.55;45.65
40788;BME280;26497;52.494;7.546;2022-07-29T04:42:59;101046.34;;;20.59;45.50
40788;BME280;26497;52.494;7.546;2022-07-29T04:45:28;101033.03;;;20.58;45.63
40788;BME280;26497;52.494;7.546;2022-07-29T04:47:55;101027.88;;;20.52;45.76
40788;BME280;26497;52.494;7.546;2022-07-29T04:50:22;101025.53;;;20.42;45.88
40788;BME280;26497;52.494;7.546;2022-07-29T04:52:49;101038.66;;;20.25;46.72
40788;BME280;26497;52.494;7.546;2022-07-29T04:55:17;101032.44;;;20.24;46.72
40788;BME280;26497;52.494;7.546;2022-07-29T04:57:44;101032.97;;;20.34;46.34
40788;BME280;26497;52.494;7.546;2022-07-29T05:00:12;101028.19;;;20.44;46.12
40788;BME280;26497;52.494;7.546;2022-07-29T05:02:40;101029.22;;;20.40;46.37
40788;BME280;26497;52.494;7.546;2022-07-29T05:05:08;101027.06;;;20.50;46.05
40788;BME280;26497;52.494;7.546;2022-07-29T05:07:35;101027.47;;;20.62;45.83
40788;BME280;26497;52.494;7.546;2022-07-29T05:10:03;101029.59;;;20.80;45.32
40788;BME280;26497;52.494;7.546;2022-07-29T05:12:30;101033.09;;;20.82;45.23
40788;BME280;26497;52.494;7.546;2022-07-29T05:14:57;101032.63;;;20.94;45.11
40788;BME280;26497;52.494;7.546;2022-07-29T05:17:24;101030.34;;;21.07;44.67
40788;BME280;26497;52.494;7.546;2022-07-29T05:19:53;101036.03;;;21.21;44.70
40788;BME280;26497;52.494;7.546;2022-07-29T05:22:20;101033.47;;;21.41;44.33
40788;BME280;26497;52.494;7.546;2022-07-29T05:24:47;101035.53;;;21.56;43.50
40788;BME280;26497;52.494;7.546;2022-07-29T05:27:14;101037.97;;;21.64;43.50
40788;BME280;26497;52.494;7.546;2022-07-29T05:29:42;101030.91;;;21.84;42.87
40788;BME280;26497;52.494;7.546;2022-07-29T05:32:09;101024.72;;;21.82;43.10
40788;BME280;26497;52.494;7.546;2022-07-29T05:34:36;101025.13;;;21.93;43.05
40788;BME280;26497;52.494;7.546;2022-07-29T05:37:04;101024.34;;;22.12;41.93
40788;BME280;26497;52.494;7.546;2022-07-29T05:39:31;101034.91;;;22.37;41.78
40788;BME280;26497;52.494;7.546;2022-07-29T05:41:58;101022.63;;;22.52;41.18
40788;BME280;26497;52.494;7.546;2022-07-29T05:44:25;101030.31;;;22.60;40.69
40788;BME280;26497;52.494;7.546;2022-07-29T05:46:52;101035.66;;;22.80;41.02
40788;BME280;26497;52.494;7.546;2022-07-29T05:49:19;101040.50;;;23.12;40.54
40788;BME280;26497;52.494;7.546;2022-07-29T05:51:46;101045.38;;;23.42;39.49
40788;BME280;26497;52.494;7.546;2022-07-29T05:54:16;101040.84;;;23.62;39.15
40788;BME280;26497;52.494;7.546;2022-07-29T05:56:43;101037.22;;;23.80;38.20
40788;BME280;26497;52.494;7.546;2022-07-29T05:59:10;101045.06;;;24.04;38.32
40788;BME280;26497;52.494;7.546;2022-07-29T06:01:37;101037.06;;;24.54;37.41
40788;BME280;26497;52.494;7.546;2022-07-29T06:04:05;101034.97;;;25.10;36.21
40788;BME280;26497;52.494;7.546;2022-07-29T06:06:32;101032.13;;;25.61;34.97
40788;BME280;26497;52.494;7.546;2022-07-29T06:09:00;101031.34;;;25.90;34.78
40788;BME280;26497;52.494;7.546;2022-07-29T06:11:28;101034.38;;;26.00;33.94
40788;BME280;26497;52.494;7.546;2022-07-29T06:13:55;101033.41;;;26.01;34.03
40788;BME280;26497;52.494;7.546;2022-07-29T06:16:22;101038.56;;;25.89;34.25
40788;BME280;26497;52.494;7.546;2022-07-29T06:18:49;101037.00;;;25.55;34.14
40788;BME280;26497;52.494;7.546;2022-07-29T06:21:16;101041.78;;;25.33;34.84
40788;BME280;26497;52.494;7.546;2022-07-29T06:23:44;101056.41;;;25.29;36.69
40788;BME280;26497;52.494;7.546;2022-07-29T06:26:12;101055.56;;;25.45;35.69
40788;BME280;26497;52.494;7.546;2022-07-29T06:28:40;101061.47;;;25.68;35.07
40788;BME280;26497;52.494;7.546;2022-07-29T06:31:07;101050.94;;;25.94;34.53
40788;BME280;26497;52.494;7.546;2022-07-29T06:33:34;101051.41;;;26.32;34.40
40788;BME280;26497;52.494;7.546;2022-07-29T06:36:04;101052.97;;;26.65;35.44
40788;BME280;26497;52.494;7.546;2022-07-29T06:38:31;101044.59;;;26.99;33.89
40788;BME280;26497;52.494;7.546;2022-07-29T06:40:59;101050.34;;;27.22;32.85
40788;BME280;26497;52.494;7.546;2022-07-29T06:43:27;101045.66;;;27.53;31.22
40788;BME280;26497;52.494;7.546;2022-07-29T06:45:59;101051.00;;;27.55;31.52
40788;BME280;26497;52.494;7.546;2022-07-29T06:48:27;101055.66;;;28.33;31.50
40788;BME280;26497;52.494;7.546;2022-07-29T06:50:54;101057.78;;;29.69;30.01
40788;BME280;26497;52.494;7.546;2022-07-29T06:53:21;101061.88;;;30.46;27.23
40788;BME280;26497;52.494;7.546;2022-07-29T06:55:49;101068.22;;;30.47;27.26
40788;BME280;26497;52.494;7.546;2022-07-29T06:58:16;101069.63;;;30.16;27.38
40788;BME280;26497;52.494;7.546;2022-07-29T07:00:46;101073.50;;;29.77;27.80
40788;BME280;26497;52.494;7.546;2022-07-29T07:03:14;101069.63;;;29.43;28.10
40788;BME280;26497;52.494;7.546;2022-07-29T07:05:41;101069.91;;;28.89;28.56
40788;BME280;26497;52.494;7.546;2022-07-29T07:08:08;101068.78;;;28.52;29.15
40788;BME280;26497;52.494;7.546;2022-07-29T07:10:35;101067.97;;;28.11;29.62
40788;BME280;26497;52.494;7.546;2022-07-29T07:13:04;101076.28;;;27.95;30.18
40788;BME280;26497;52.494;7.546;2022-07-29T07:15:31;101089.47;;;27.87;30.28
40788;BME280;26497;52.494;7.546;2022-07-29T07:17:59;101083.94;;;27.89;31.02
40788;BME280;26497;52.494;7.546;2022-07-29T07:20:27;101088.41;;;28.17;30.77
40788;BME280;26497;52.494;7.546;2022-07-29T07:22:54;101090.72;;;28.36;30.36
40788;BME280;26497;52.494;7.546;2022-07-29T07:25:21;101091.03;;;28.58;29.78
40788;BME280;26497;52.494;7.546;2022-07-29T07:27:48;101090.53;;;28.65;29.33
40788;BME280;26497;52.494;7.546;2022-07-29T07:30:15;101084.53;;;28.73;29.87
40788;BME280;26497;52.494;7.546;2022-07-29T07:32:43;101077.28;;;28.87;29.31
40788;BME280;26497;52.494;7.546;2022-07-29T07:35:10;101074.13;;;28.93;29.03
40788;BME280;26497;52.494;7.546;2022-07-29T07:37:39;101074.81;;;28.83;29.09
40788;BME280;26497;52.494;7.546;2022-07-29T07:40:09;101070.13;;;28.86;29.57
40788;BME280;26497;52.494;7.546;2022-07-29T07:42:37;101067.50;;;28.97;29.40
40788;BME280;26497;52.494;7.546;2022-07-29T07:45:05;101068.50;;;28.96;29.20
40788;BME280;26497;52.494;7.546;2022-07-29T07:47:32;101071.88;;;28.99;28.51
40788;BME280;26497;52.494;7.546;2022-07-29T07:49:59;101075.78;;;28.82;29.35
40788;BME280;26497;52.494;7.546;2022-07-29T07:52:26;101069.59;;;28.80;29.11
40788;BME280;26497;52.494;7.546;2022-07-29T07:54:55;101063.94;;;28.83;29.45
40788;BME280;26497;52.494;7.546;2022-07-29T07:57:22;101075.75;;;28.69;29.76
40788;BME280;26497;52.494;7.546;2022-07-29T07:59:49;101080.09;;;28.72;29.89
40788;BME280;26497;52.494;7.546;2022-07-29T08:02:16;101080.56;;;28.79;29.90
40788;BME280;26497;52.494;7.546;2022-07-29T08:04:43;101081.22;;;28.95;30.92
40788;BME280;26497;52.494;7.546;2022-07-29T08:07:10;101079.34;;;29.09;29.23
40788;BME280;26497;52.494;7.546;2022-07-29T08:09:37;101076.72;;;29.07;29.23
40788;BME280;26497;52.494;7.546;2022-07-29T08:12:06;101070.72;;;29.28;29.54
40788;BME280;26497;52.494;7.546;2022-07-29T08:14:33;101068.03;;;29.65;29.01
40788;BME280;26497;52.494;7.546;2022-07-29T08:17:00;101064.84;;;29.71;28.39
40788;BME280;26497;52.494;7.546;2022-07-29T08:19:27;101078.06;;;29.76;28.64
40788;BME280;26497;52.494;7.546;2022-07-29T08:21:54;101075.25;;;29.89;28.27
40788;BME280;26497;52.494;7.546;2022-07-29T08:24:21;101066.25;;;30.13;27.75
40788;BME280;26497;52.494;7.546;2022-07-29T08:27:07;101077.09;;;30.01;28.26
40788;BME280;26497;52.494;7.546;2022-07-29T08:29:35;101063.50;;;30.01;28.47
40788;BME280;26497;52.494;7.546;2022-07-29T08:32:02;101074.19;;;29.92;27.93
40788;BME280;26497;52.494;7.546;2022-07-29T08:34:29;101069.28;;;29.35;28.66
40788;BME280;26497;52.494;7.546;2022-07-29T08:36:57;101061.75;;;28.76;29.77
40788;BME280;26497;52.494;7.546;2022-07-29T08:39:24;101071.22;;;28.44;30.26
40788;BME280;26497;52.494;7.546;2022-07-29T08:41:51;101067.41;;;28.34;30.63
40788;BME280;26497;52.494;7.546;2022-07-29T08:44:20;101071.09;;;28.46;30.81
40788;BME280;26497;52.494;7.546;2022-07-29T08:46:48;101062.84;;;28.47;30.98
40788;BME280;26497;52.494;7.546;2022-07-29T08:49:16;101066.84;;;28.42;30.81
40788;BME280;26497;52.494;7.546;2022-07-29T08:51:44;101067.06;;;28.38;30.85
40788;BME280;26497;52.494;7.546;2022-07-29T08:54:11;101062.81;;;28.34;30.82
40788;BME280;26497;52.494;7.546;2022-07-29T08:56:43;101052.84;;;28.48;30.92
40788;BME280;26497;52.494;7.546;2022-07-29T08:59:10;101064.47;;;28.76;30.46
40788;BME280;26497;52.494;7.546;2022-07-29T09:01:39;101056.44;;;29.00;30.37
40788;BME280;26497;52.494;7.546;2022-07-29T09:04:11;101055.38;;;29.03;30.44
40788;BME280;26497;52.494;7.546;2022-07-29T09:06:44;101053.28;;;29.06;29.98
40788;BME280;26497;52.494;7.546;2022-07-29T09:09:11;101052.38;;;29.19;29.83
40788;BME280;26497;52.494;7.546;2022-07-29T09:11:40;101062.94;;;29.10;29.78
40788;BME280;26497;52.494;7.546;2022-07-29T09:14:07;101049.84;;;28.91;30.08
40788;BME280;26497;52.494;7.546;2022-07-29T09:16:52;101046.47;;;28.88;29.78
40788;BME280;26497;52.494;7.546;2022-07-29T09:19:24;101046.34;;;28.63;30.50
40788;BME280;26497;52.494;7.546;2022-07-29T09:21:52;101054.59;;;28.49;30.81
40788;BME280;26497;52.494;7.546;2022-07-29T09:24:27;101044.28;;;28.28;31.67
40788;BME280;26497;52.494;7.546;2022-07-29T09:27:03;101058.09;;;28.10;32.47
40788;BME280;26497;52.494;7.546;2022-07-29T09:29:34;101059.63;;;27.74;32.39
40788;BME280;26497;52.494;7.546;2022-07-29T09:32:08;101049.63;;;27.47;33.12
40788;BME280;26497;52.494;7.546;2022-07-29T09:34:36;101052.81;;;27.40;33.48
40788;BME280;26497;52.494;7.546;2022-07-29T09:37:04;101048.19;;;27.42;33.54
40788;BME280;26497;52.494;7.546;2022-07-29T09:39:34;101048.38;;;27.53;33.45
40788;BME280;26497;52.494;7.546;2022-07-29T09:42:04;101049.50;;;27.63;33.57
40788;BME280;26497;52.494;7.546;2022-07-29T09:44:45;101047.34;;;27.69;33.44
40788;BME280;26497;52.494;7.546;2022-07-29T09:47:18;101050.34;;;27.78;33.44
40788;BME280;26497;52.494;7.546;2022-07-29T09:49:53;101046.88;;;27.89;34.04
40788;BME280;26497;52.494;7.546;2022-07-29T09:52:24;101048.72;;;27.89;33.47
40788;BME280;26497;52.494;7.546;2022-07-29T09:54:51;101052.16;;;27.78;33.20
40788;BME280;26497;52.494;7.546;2022-07-29T09:57:26;101049.44;;;27.78;33.33
40788;BME280;26497;52.494;7.546;2022-07-29T09:59:58;101055.31;;;27.57;33.64
40788;BME280;26497;52.494;7.546;2022-07-29T10:02:32;101058.59;;;27.62;33.84
40788;BME280;26497;52.494;7.546;2022-07-29T10:05:00;101068.94;;;27.70;34.48
40788;BME280;26497;52.494;7.546;2022-07-29T10:07:44;101062.34;;;27.74;33.27
40788;BME280;26497;52.494;7.546;2022-07-29T10:10:20;101080.59;;;27.58;34.33
40788;BME280;26497;52.494;7.546;2022-07-29T10:12:53;101075.06;;;27.59;34.04
40788;BME280;26497;52.494;7.546;2022-07-29T10:15:22;101073.88;;;27.63;34.55
40788;BME280;26497;52.494;7.546;2022-07-29T10:17:53;101083.19;;;27.59;34.23
40788;BME280;26497;52.494;7.546;2022-07-29T10:20:21;101073.13;;;27.47;33.98
40788;BME280;26497;52.494;7.546;2022-07-29T10:22:50;101074.50;;;27.25;34.75
40788;BME280;26497;52.494;7.546;2022-07-29T10:25:18;101072.25;;;27.04;35.24
40788;BME280;26497;52.494;7.546;2022-07-29T10:27:47;101063.44;;;26.86;35.62
40788;BME280;26497;52.494;7.546;2022-07-29T10:30:16;101077.84;;;26.87;36.25
40788;BME280;26497;52.494;7.546;2022-07-29T10:33:10;101077.41;;;26.78;36.43
40788;BME280;26497;52.494;7.546;2022-07-29T10:35:59;101069.38;;;26.48;37.65
40788;BME280;26497;52.494;7.546;2022-07-29T10:38:54;101063.97;;;26.48;37.95
40788;BME280;26497;52.494;7.546;2022-07-29T10:41:43;101066.28;;;26.54;37.09
40788;BME280;26497;52.494;7.546;2022-07-29T10:44:17;101064.91;;;26.32;38.41
40788;BME280;26497;52.494;7.546;2022-07-29T10:46:45;101071.06;;;26.20;38.27
40788;BME280;26497;52.494;7.546;2022-07-29T10:49:16;101066.28;;;25.93;40.10
40788;BME280;26497;52.494;7.546;2022-07-29T10:52:04;101055.22;;;25.51;42.72
40788;BME280;26497;52.494;7.546;2022-07-29T10:54:48;101062.81;;;25.11;45.30
40788;BME280;26497;52.494;7.546;2022-07-29T10:57:24;101060.69;;;24.84;46.04
40788;BME280;26497;52.494;7.546;2022-07-29T11:00:30;101070.94;;;24.77;49.61
40788;BME280;26497;52.494;7.546;2022-07-29T11:02:58;101063.16;;;24.71;50.98
40788;BME280;26497;52.494;7.546;2022-07-29T11:05:27;101058.25;;;24.79;51.64
40788;BME280;26497;52.494;7.546;2022-07-29T11:08:32;101053.75;;;24.96;51.97
40788;BME280;26497;52.494;7.546;2022-07-29T11:11:30;101056.75;;;25.07;52.42
40788;BME280;26497;52.494;7.546;2022-07-29T11:13:57;101062.47;;;25.17;51.58
40788;BME280;26497;52.494;7.546;2022-07-29T11:16:24;101068.75;;;25.17;50.92
40788;BME280;26497;52.494;7.546;2022-07-29T11:19:20;101070.91;;;25.11;51.04
40788;BME280;26497;52.494;7.546;2022-07-29T11:21:50;101072.47;;;25.15;51.43
40788;BME280;26497;52.494;7.546;2022-07-29T11:24:21;101073.38;;;25.31;50.65
40788;BME280;26497;52.494;7.546;2022-07-29T11:27:11;101079.69;;;25.48;50.75
40788;BME280;26497;52.494;7.546;2022-07-29T11:29:48;101072.63;;;25.61;51.15
40788;BME280;26497;52.494;7.546;2022-07-29T11:32:17;101065.63;;;25.73;50.15
40788;BME280;26497;52.494;7.546;2022-07-29T11:34:46;101066.94;;;25.66;50.27
40788;BME280;26497;52.494;7.546;2022-07-29T11:37:23;101068.78;;;25.50;51.53
40788;BME280;26497;52.494;7.546;2022-07-29T11:40:16;101064.59;;;25.44;52.86
40788;BME280;26497;52.494;7.546;2022-07-29T11:42:46;101060.06;;;25.28;53.89
40788;BME280;26497;52.494;7.546;2022-07-29T11:45:25;101053.94;;;25.25;54.67
40788;BME280;26497;52.494;7.546;2022-07-29T11:47:58;101061.88;;;25.12;55.97
40788;BME280;26497;52.494;7.546;2022-07-29T11:50:35;101057.69;;;25.06;56.02
40788;BME280;26497;52.494;7.546;2022-07-29T11:53:11;101059.94;;;25.14;55.27
40788;BME280;26497;52.494;7.546;2022-07-29T11:55:39;101057.97;;;25.17;56.38
40788;BME280;26497;52.494;7.546;2022-07-29T11:58:07;101053.59;;;25.31;56.69
40788;BME280;26497;52.494;7.546;2022-07-29T12:00:39;101054.44;;;25.49;56.76
40788;BME280;26497;52.494;7.546;2022-07-29T12:03:09;101060.34;;;25.56;56.68
40788;BME280;26497;52.494;7.546;2022-07-29T12:05:39;101058.69;;;25.53;56.99
40788;BME280;26497;52.494;7.546;2022-07-29T12:08:13;101056.78;;;25.55;56.04
40788;BME280;26497;52.494;7.546;2022-07-29T12:10:42;101061.09;;;25.42;56.41
40788;BME280;26497;52.494;7.546;2022-07-29T12:13:11;101053.25;;;25.21;55.15
40788;BME280;26497;52.494;7.546;2022-07-29T12:15:39;101043.75;;;24.98;55.41
40788;BME280;26497;52.494;7.546;2022-07-29T12:18:11;101030.66;;;24.74;56.17
40788;BME280;26497;52.494;7.546;2022-07-29T12:20:38;101034.63;;;24.49;55.96
40788;BME280;26497;52.494;7.546;2022-07-29T12:23:08;101032.91;;;24.30;55.65
40788;BME280;26497;52.494;7.546;2022-07-29T12:25:40;101024.44;;;24.21;54.22
40788;BME280;26497;52.494;7.546;2022-07-29T12:28:09;101030.19;;;23.95;54.63
40788;BME280;26497;52.494;7.546;2022-07-29T12:30:41;101026.25;;;23.85;54.75
40788;BME280;26497;52.494;7.546;2022-07-29T12:33:18;101023.28;;;23.72;55.44
40788;BME280;26497;52.494;7.546;2022-07-29T12:35:49;101021.63;;;23.69;55.51
40788;BME280;26497;52.494;7.546;2022-07-29T12:38:19;101019.31;;;23.62;55.67
40788;BME280;26497;52.494;7.546;2022-07-29T12:40:48;101021.19;;;23.60;54.96
40788;BME280;26497;52.494;7.546;2022-07-29T12:43:18;101023.88;;;23.60;55.61
40788;BME280;26497;52.494;7.546;2022-07-29T12:45:48;101011.78;;;23.51;55.79
40788;BME280;26497;52.494;7.546;2022-07-29T12:48:17;101014.81;;;23.43;55.87
40788;BME280;26497;52.494;7.546;2022-07-29T12:50:56;101008.50;;;23.44;57.21
40788;BME280;26497;52.494;7.546;2022-07-29T12:53:25;101013.91;;;23.62;56.79
40788;BME280;26497;52.494;7.546;2022-07-29T12:55:54;101017.59;;;23.78;56.16
40788;BME280;26497;52.494;7.546;2022-07-29T12:58:33;101011.31;;;23.95;54.59
40788;BME280;26497;52.494;7.546;2022-07-29T13:01:10;101008.72;;;23.94;55.74
40788;BME280;26497;52.494;7.546;2022-07-29T13:03:50;101004.31;;;24.10;56.49
40788;BME280;26497;52.494;7.546;2022-07-29T13:06:29;101004.47;;;24.25;55.36
40788;BME280;26497;52.494;7.546;2022-07-29T13:09:05;101003.19;;;24.32;54.17
40788;BME280;26497;52.494;7.546;2022-07-29T13:11:34;101006.59;;;24.36;54.29